Time;durP1;ratioP1;P1;durP2;ratioP2;P2;SDS_P1;SDS_P2;PMS_P1;PMS_P2;Temp;Humidity;BMP_temperature;BMP_pressure;BME280_temperature;BME280_humidity;BME280_pressure;Samples;Min_cycle;Max_cycle;Signal;HPM_P1;HPM_P2
2022/02/03 00:00:44;;;;;;;11.00;3.65;;;10.00;97.90;;;;;;5030917;28;20402;-71
2022/02/03 00:03:24;;;;;;;10.15;2.83;;;10.00;98.10;;;;;;5031738;28;20444;-71
2022/02/03 00:05:57;;;;;;;10.57;2.85;;;10.00;98.00;;;;;;4984219;28;20089;-71
2022/02/03 00:08:34;;;;;;;7.95;2.80;;;10.00;98.20;;;;;;4998036;28;20404;-71
2022/02/03 00:11:30;;;;;;;7.97;2.65;;;10.00;98.40;;;;;;5034075;28;20042;-71
2022/02/03 00:17:05;;;;;;;8.57;2.25;;;10.00;98.30;;;;;;5019190;28;20080;-71
2022/02/03 00:22:44;;;;;;;9.32;2.20;;;10.00;98.90;;;;;;5037619;28;20053;-72
2022/02/03 00:25:22;;;;;;;9.10;2.92;;;10.00;98.40;;;;;;5032344;28;20134;-72
2022/02/03 00:48:15;;;;;;;120.65;72.65;;;10.00;97.60;;;;;;5032692;28;20053;-72
2022/02/03 00:49:58;;;;;;;11.43;3.90;;;10.00;97.70;;;;;;5019894;28;20049;-71
2022/02/03 00:52:26;;;;;;;11.77;2.63;;;10.00;98.20;;;;;;5021342;28;20045;-72
2022/02/03 00:54:53;;;;;;;10.15;3.05;;;10.00;98.40;;;;;;5018819;28;20435;-71
2022/02/03 00:57:40;;;;;;;9.30;3.72;;;10.00;98.50;;;;;;5008323;28;20041;-71
2022/02/03 01:00:11;;;;;;;10.40;3.58;;;10.00;98.40;;;;;;5029479;28;20068;-71
2022/02/03 01:02:51;;;;;;;9.05;3.10;;;9.90;98.70;;;;;;5027581;28;20041;-72
2022/02/03 01:05:18;;;;;;;11.32;2.85;;;9.90;99.40;;;;;;4991024;28;20046;-71
2022/02/03 01:07:47;;;;;;;9.70;3.55;;;9.90;99.20;;;;;;5009822;28;20139;-71
2022/02/03 01:10:22;;;;;;;15.38;3.85;;;9.90;99.50;;;;;;5032494;28;20049;-71
2022/02/03 01:15:36;;;;;;;8.05;3.65;;;9.90;99.30;;;;;;5027921;28;20050;-71
2022/02/03 01:45:28;;;;;;;10.52;4.22;;;9.50;99.90;;;;;;5015080;28;20506;-72
2022/02/03 01:52:52;;;;;;;8.70;4.18;;;9.50;99.90;;;;;;5028603;28;20049;-71
2022/02/03 01:55:26;;;;;;;9.85;4.35;;;9.50;99.90;;;;;;5026192;28;20085;-71
2022/02/03 01:58:04;;;;;;;9.88;4.20;;;9.50;99.90;;;;;;5021409;28;20049;-71
2022/02/03 02:00:36;;;;;;;13.13;4.25;;;9.50;99.90;;;;;;5020503;28;20400;-71
2022/02/03 02:03:08;;;;;;;11.05;4.13;;;9.50;99.90;;;;;;5015537;28;20077;-71
2022/02/03 02:05:45;;;;;;;19.75;4.68;;;9.50;99.90;;;;;;5015324;28;20067;-71
2022/02/03 02:08:17;;;;;;;16.33;3.33;;;9.50;99.90;;;;;;5031271;28;20124;-71
2022/02/03 02:14:04;;;;;;;14.57;5.90;;;9.40;99.90;;;;;;5025981;28;20159;-70
2022/02/03 02:19:42;;;;;;;9.63;3.67;;;9.50;99.90;;;;;;5023559;28;20068;-71
2022/02/03 02:39:08;;;;;;;12.63;4.68;;;9.30;99.90;;;;;;5028627;28;20056;-71
2022/02/03 02:44:39;;;;;;;8.45;3.83;;;9.30;99.90;;;;;;5030756;28;20453;-71
2022/02/03 02:47:11;;;;;;;20.25;6.32;;;9.30;99.90;;;;;;5031210;28;20049;-71
2022/02/03 02:49:52;;;;;;;10.48;4.43;;;9.30;99.90;;;;;;5007035;28;20045;-71
2022/02/03 02:52:26;;;;;;;12.77;4.20;;;9.30;99.90;;;;;;4991154;28;20050;-72
2022/02/03 03:36:21;;;;;;;11.90;3.60;;;9.20;99.90;;;;;;4971217;28;20054;-70
2022/02/03 03:38:49;;;;;;;12.20;3.67;;;9.10;99.90;;;;;;4980804;28;20051;-71
2022/02/03 03:41:18;;;;;;;10.30;4.32;;;9.20;99.90;;;;;;4992044;28;20057;-71
2022/02/03 03:43:59;;;;;;;9.80;3.67;;;9.20;99.90;;;;;;5039871;28;20058;-72
2022/02/03 03:46:27;;;;;;;11.85;3.70;;;9.20;99.90;;;;;;5033365;28;20080;-71
2022/02/03 03:49:29;;;;;;;11.52;3.60;;;9.10;99.90;;;;;;5024175;28;20477;-71
2022/02/03 03:52:09;;;;;;;7.47;3.08;;;9.10;99.90;;;;;;5016681;28;20045;-71
2022/02/03 03:57:15;;;;;;;8.88;2.53;;;9.00;99.90;;;;;;5015660;28;20145;-71
2022/02/03 04:41:07;;;;;;;11.18;3.70;;;8.90;99.90;;;;;;5012284;28;20050;-71
2022/02/03 05:02:35;;;;;;;7.60;2.10;;;8.70;99.90;;;;;;5012499;28;20551;-70
2022/02/03 05:05:33;;;;;;;12.15;2.78;;;8.60;99.90;;;;;;5012107;28;20052;-71
2022/02/03 05:11:58;;;;;;;6.60;2.30;;;8.60;99.90;;;;;;5003343;28;20517;-70
2022/02/03 05:24:35;;;;;;;7.95;2.13;;;8.60;99.90;;;;;;4972308;28;20069;-71
2022/02/03 06:14:32;;;;;;;2.78;1.60;;;8.10;99.90;;;;;;4977956;28;20054;-71
2022/02/03 06:17:17;;;;;;;4.32;1.70;;;8.10;99.90;;;;;;5010020;28;20045;-72
2022/02/03 06:22:45;;;;;;;4.40;1.80;;;8.10;99.90;;;;;;5010765;28;20486;-71
2022/02/03 06:27:57;;;;;;;4.40;1.90;;;8.20;99.90;;;;;;5010453;28;20042;-71
2022/02/03 06:30:23;;;;;;;4.80;2.45;;;8.10;99.90;;;;;;5011556;28;20135;-71
2022/02/03 06:32:50;;;;;;;6.40;2.17;;;8.10;99.90;;;;;;5008318;28;20042;-71
2022/02/03 06:35:18;;;;;;;3.88;1.90;;;8.10;99.90;;;;;;5011436;28;20053;-70
2022/02/03 06:37:47;;;;;;;4.15;1.60;;;8.10;99.90;;;;;;5011439;28;20049;-71
2022/02/03 06:40:14;;;;;;;7.90;2.20;;;8.10;99.90;;;;;;5011469;28;20056;-71
2022/02/03 06:42:43;;;;;;;8.65;2.45;;;8.10;99.90;;;;;;5011413;28;20493;-71
2022/02/03 06:45:22;;;;;;;5.95;2.10;;;8.10;99.90;;;;;;5014396;28;20061;-71
2022/02/03 06:48:05;;;;;;;3.75;1.50;;;8.10;99.90;;;;;;5013717;28;20042;-71
2022/02/03 06:50:39;;;;;;;6.22;2.10;;;8.10;99.90;;;;;;5014408;28;20116;-74
2022/02/03 06:53:19;;;;;;;79.97;52.85;;;8.10;99.90;;;;;;5014169;28;20053;-66
2022/02/03 06:55:53;;;;;;;6.80;3.97;;;8.10;99.90;;;;;;5032397;28;20050;-67
2022/02/03 06:58:30;;;;;;;9.13;2.55;;;8.10;99.90;;;;;;5036764;28;20076;-72
2022/02/03 07:01:20;;;;;;;7.22;2.45;;;8.10;99.90;;;;;;5046869;28;20049;-69
2022/02/03 07:03:55;;;;;;;3.42;1.88;;;8.10;99.90;;;;;;5045701;28;20079;-71
2022/02/03 07:06:22;;;;;;;3.90;1.85;;;8.10;99.90;;;;;;5025732;28;20497;-70
2022/02/03 07:08:51;;;;;;;2.80;1.50;;;8.10;99.90;;;;;;5030812;28;20041;-71
2022/02/03 07:11:20;;;;;;;3.63;1.85;;;8.10;99.90;;;;;;5041078;28;20516;-69
2022/02/03 07:13:47;;;;;;;;;;;8.00;99.90;;;;;;5035800;28;20054;-69
2022/02/03 07:16:14;;;;;;;5.65;3.97;;;8.10;99.90;;;;;;5024364;28;20320;-71
2022/02/03 07:18:41;;;;;;;3.97;1.50;;;8.10;99.90;;;;;;5034824;28;20049;-69
2022/02/03 07:21:11;;;;;;;3.35;1.38;;;8.10;99.90;;;;;;5001441;28;20054;-69
2022/02/03 07:23:39;;;;;;;8.27;2.85;;;8.00;99.90;;;;;;5018323;28;20053;-70
2022/02/03 07:26:06;;;;;;;4.45;1.65;;;8.00;99.90;;;;;;5019146;28;20041;-70
2022/02/03 07:28:36;;;;;;;3.40;1.42;;;8.00;99.90;;;;;;5020594;28;20056;-70
2022/02/03 07:31:03;;;;;;;3.55;1.95;;;8.00;99.90;;;;;;5004532;28;20052;-69
2022/02/03 07:33:32;;;;;;;2.63;1.52;;;8.00;99.90;;;;;;5022165;28;20428;-67
2022/02/03 07:35:59;;;;;;;3.00;1.48;;;7.90;99.90;;;;;;5034288;28;20473;-67
2022/02/03 07:38:26;;;;;;;2.72;1.30;;;7.90;99.90;;;;;;5034474;28;20507;-67
2022/02/03 07:40:53;;;;;;;2.45;1.40;;;7.90;99.90;;;;;;5011733;28;20045;-67
2022/02/03 07:43:22;;;;;;;5.20;1.20;;;7.90;99.90;;;;;;5018480;28;20048;-67
2022/02/03 07:45:49;;;;;;;5.25;1.48;;;7.90;99.90;;;;;;5023552;28;20052;-67
2022/02/03 07:48:20;;;;;;;4.65;1.77;;;7.80;99.90;;;;;;5033044;28;20049;-69
2022/02/03 07:50:47;;;;;;;12.35;8.18;;;7.80;99.90;;;;;;5033351;28;20049;-71
2022/02/03 07:53:14;;;;;;;9.98;7.75;;;7.90;99.90;;;;;;5045851;28;20053;-70
2022/02/03 07:55:41;;;;;;;14.98;3.33;;;7.90;99.90;;;;;;5049749;28;20098;-71
2022/02/03 07:58:08;;;;;;;8.82;3.05;;;8.10;99.90;;;;;;5033369;28;20414;-70
2022/02/03 08:00:35;;;;;;;4.82;1.83;;;8.10;99.90;;;;;;5023489;28;20045;-70
2022/02/03 08:03:14;;;;;;;10.25;2.08;;;8.10;99.90;;;;;;5031852;28;20049;-70
2022/02/03 08:05:45;;;;;;;5.53;1.73;;;8.20;99.90;;;;;;5033144;28;20049;-72
2022/02/03 08:11:16;;;;;;;3.40;1.10;;;8.30;99.90;;;;;;5008579;28;20053;-66
2022/02/03 08:13:53;;;;;;;3.80;1.38;;;8.40;99.90;;;;;;5015527;28;20513;-70
2022/02/03 08:16:26;;;;;;;2.42;0.80;;;8.40;99.90;;;;;;5023186;28;20046;-68
2022/02/03 08:19:02;;;;;;;2.78;0.85;;;8.40;99.90;;;;;;5028032;28;20103;-69
2022/02/03 08:21:31;;;;;;;2.28;1.10;;;8.40;99.90;;;;;;5021460;28;20415;-70
2022/02/03 08:32:16;;;;;;;3.55;1.02;;;8.50;99.90;;;;;;5017159;28;20512;-68
2022/02/03 08:37:28;;;;;;;1.42;0.82;;;8.60;99.90;;;;;;5032882;28;20096;-69
2022/02/03 08:40:08;;;;;;;3.60;1.35;;;8.60;99.90;;;;;;5027397;28;20054;-70
2022/02/03 08:42:35;;;;;;;3.38;1.33;;;8.60;99.90;;;;;;5031926;28;20049;-70
2022/02/03 08:45:02;;;;;;;1.77;1.25;;;8.70;99.90;;;;;;5024665;28;20042;-69
2022/02/03 08:47:29;;;;;;;87.43;60.33;;;8.70;99.90;;;;;;5031809;28;20053;-62
2022/02/03 08:49:56;;;;;;;10.65;7.70;;;8.70;99.90;;;;;;5047681;28;20045;-67
2022/02/03 08:52:31;;;;;;;6.75;2.45;;;8.80;99.90;;;;;;5037999;28;20064;-67
2022/02/03 08:55:08;;;;;;;13.57;10.05;;;8.80;99.90;;;;;;5030024;28;20057;-67
2022/02/03 08:58:15;;;;;;;2.90;1.40;;;8.80;99.90;;;;;;5024711;28;20386;-70
2022/02/03 09:28:23;;;;;;;3.47;1.10;;;8.90;99.90;;;;;;5031493;28;20068;-70
2022/02/03 09:55:24;;;;;;;2.97;1.60;;;9.90;99.90;;;;;;5015720;28;20068;-68
2022/02/03 09:58:12;;;;;;;2.25;1.20;;;9.80;99.90;;;;;;5032275;28;20053;-69
2022/02/03 10:03:17;;;;;;;3.40;1.48;;;9.80;99.90;;;;;;5020543;28;20141;-69
2022/02/03 10:08:26;;;;;;;3.38;1.63;;;9.90;99.90;;;;;;4999028;28;20265;-69
2022/02/03 10:11:10;;;;;;;1.40;1.08;;;9.90;99.90;;;;;;5014656;28;20520;-68
2022/02/03 10:14:01;;;;;;;2.92;1.40;;;10.10;99.90;;;;;;5032289;28;20049;-68
2022/02/03 10:16:30;;;;;;;2.00;1.35;;;10.10;99.90;;;;;;4998671;28;20053;-68
2022/02/03 10:19:11;;;;;;;1.80;1.20;;;10.10;99.90;;;;;;5031333;28;20060;-68
2022/02/03 10:21:40;;;;;;;4.57;1.38;;;10.10;99.90;;;;;;5014249;28;20103;-68
2022/02/03 10:24:08;;;;;;;2.28;1.45;;;10.10;99.90;;;;;;4996776;28;20044;-68
2022/02/03 10:26:38;;;;;;;5.85;1.50;;;10.10;99.90;;;;;;5030937;28;20060;-71
2022/02/03 10:29:05;;;;;;;;;;;10.10;99.90;;;;;;5025591;28;20409;-75
2022/02/03 10:31:41;;;;;;;2.80;1.48;;;10.20;99.90;;;;;;5014761;28;19975;-71
2022/02/03 10:34:13;;;;;;;5.65;1.50;;;10.20;99.90;;;;;;4999720;28;20440;-68
2022/02/03 10:36:57;;;;;;;2.78;1.55;;;10.30;99.90;;;;;;5006727;28;20053;-71
2022/02/03 10:50:23;;;;;;;5.32;1.67;;;10.40;99.90;;;;;;5012764;28;20041;-71
2022/02/03 10:55:58;;;;;;;4.80;1.48;;;10.50;99.90;;;;;;5013584;28;20066;-73
2022/02/03 11:01:19;;;;;;;2.80;1.05;;;10.70;99.90;;;;;;5013317;28;20060;-70
2022/02/03 11:06:40;;;;;;;4.95;1.52;;;10.90;98.40;;;;;;5028718;28;20042;-69
2022/02/03 11:11:38;;;;;;;6.20;1.35;;;10.80;97.50;;;;;;4991863;28;20060;-69
2022/02/03 11:14:05;;;;;;;2.13;1.08;;;10.80;97.70;;;;;;5012370;28;20105;-68
2022/02/03 11:16:36;;;;;;;3.78;1.83;;;10.80;97.10;;;;;;5015731;28;20486;-68
2022/02/03 11:19:05;;;;;;;5.32;1.42;;;10.80;96.60;;;;;;5011891;28;20068;-69
2022/02/03 11:21:33;;;;;;;5.38;1.63;;;10.90;97.10;;;;;;4996294;28;20050;-68
2022/02/03 11:24:09;;;;;;;2.90;1.27;;;10.90;96.60;;;;;;5011711;28;20495;-68
2022/02/03 11:32:01;;;;;;;2.55;1.10;;;11.00;97.00;;;;;;5016226;28;20186;-68
2022/02/03 11:34:54;;;;;;;1.23;1.05;;;11.00;96.00;;;;;;5017298;28;20180;-71
2022/02/03 12:02:52;;;;;;;3.63;1.48;;;10.80;95.50;;;;;;5017755;28;20053;-69
2022/02/03 12:21:48;;;;;;;3.97;1.60;;;11.30;94.10;;;;;;5047011;28;20584;-71
2022/02/03 12:24:29;;;;;;;3.60;1.40;;;11.40;93.90;;;;;;5048461;28;20067;-69
2022/02/03 12:29:38;;;;;;;2.83;1.20;;;11.50;92.50;;;;;;5016037;28;20073;-69
2022/02/03 12:43:25;;;;;;;3.40;1.90;;;11.60;91.50;;;;;;4997276;28;20050;-68
2022/02/03 12:45:50;;;;;;;3.15;1.85;;;11.60;90.90;;;;;;4999067;28;20053;-68
2022/02/03 12:48:27;;;;;;;3.60;1.70;;;11.60;90.90;;;;;;5013859;28;20045;-66
2022/02/03 12:50:55;;;;;;;3.85;1.80;;;11.50;90.90;;;;;;4980420;28;20048;-69
2022/02/03 12:53:22;;;;;;;3.03;2.10;;;11.60;91.00;;;;;;5004267;28;20501;-70
2022/02/03 12:55:55;;;;;;;3.10;2.05;;;11.50;91.30;;;;;;5030648;28;20092;-68
2022/02/03 12:58:25;;;;;;;4.35;1.95;;;11.50;91.10;;;;;;5019196;28;20056;-66
2022/02/03 13:03:44;;;;;;;4.95;1.83;;;11.50;90.30;;;;;;5032807;28;20015;-69
2022/02/03 13:06:20;;;;;;;2.78;1.65;;;11.50;91.90;;;;;;5004931;28;20045;-67
2022/02/03 13:08:50;;;;;;;86.32;70.68;;;11.50;90.70;;;;;;5033107;28;20096;-67
2022/02/03 13:11:26;;;;;;;14.05;11.13;;;11.50;91.10;;;;;;5015975;28;20045;-68
2022/02/03 13:14:14;;;;;;;4.25;2.70;;;11.50;90.40;;;;;;5026822;28;20052;-72
2022/02/03 13:17:18;;;;;;;4.78;2.08;;;11.40;90.60;;;;;;5035343;28;20779;-67
2022/02/03 13:20:16;;;;;;;2.35;1.40;;;11.40;90.60;;;;;;5052836;28;20056;-71
2022/02/03 13:30:44;;;;;;;7.25;3.33;;;11.60;91.10;;;;;;5010057;28;20123;-65
2022/02/03 13:33:19;;;;;;;3.28;2.22;;;11.60;89.60;;;;;;5000228;28;20050;-71
2022/02/03 13:38:57;;;;;;;3.63;1.80;;;11.50;90.90;;;;;;5012126;28;20049;-68
2022/02/03 13:41:28;;;;;;;2.40;1.60;;;11.50;90.80;;;;;;5007890;28;20056;-68
2022/02/03 13:43:56;;;;;;;;;;;11.50;90.30;;;;;;5006858;28;20413;-68
2022/02/03 13:46:33;;;;;;;4.00;1.65;;;11.50;91.20;;;;;;5014621;28;19983;-68
2022/02/03 13:49:00;;;;;;;3.10;1.58;;;11.50;90.70;;;;;;5017300;28;20103;-72
2022/02/03 13:51:30;;;;;;;5.63;1.60;;;11.50;90.80;;;;;;5015545;28;20124;-67
2022/02/03 14:29:43;;;;;;;3.72;1.55;;;11.40;91.50;;;;;;4938024;29;20051;-65
2022/02/03 14:32:14;;;;;;;3.33;1.90;;;11.40;91.80;;;;;;5002582;28;20111;-69
2022/02/03 14:34:41;;;;;;;5.93;1.40;;;11.30;92.30;;;;;;5013356;28;20065;-66
2022/02/03 14:37:26;;;;;;;4.05;1.98;;;11.30;91.70;;;;;;4996707;28;20064;-66
2022/02/03 14:42:30;;;;;;;2.08;1.33;;;11.20;92.20;;;;;;5030664;28;20052;-65
2022/02/03 14:44:57;;;;;;;3.97;1.40;;;11.10;91.90;;;;;;5014474;28;20056;-68
2022/02/03 14:47:28;;;;;;;2.70;1.40;;;11.10;92.50;;;;;;5014047;28;20037;-65
2022/02/03 14:49:59;;;;;;;3.20;1.50;;;11.00;92.70;;;;;;5031766;28;20087;-65
2022/02/03 14:52:30;;;;;;;3.28;1.55;;;11.10;93.40;;;;;;5031513;28;20050;-65
2022/02/03 15:00:28;;;;;;;2.35;1.33;;;11.10;92.90;;;;;;4997466;28;20050;-65
2022/02/03 15:02:55;;;;;;;3.45;1.60;;;11.10;93.50;;;;;;5006213;28;20053;-64
2022/02/03 15:05:35;;;;;;;3.25;1.67;;;11.10;93.10;;;;;;5013972;28;20050;-65
2022/02/03 15:08:04;;;;;;;288.80;188.07;;;11.10;93.10;;;;;;5015374;28;20056;-69
2022/02/03 15:15:31;;;;;;;10.75;7.85;;;11.10;92.10;;;;;;5013979;28;20045;-66
2022/02/03 15:17:58;;;;;;;10.18;3.90;;;11.10;92.70;;;;;;5032452;28;20050;-70
2022/02/03 15:20:26;;;;;;;3.45;2.15;;;11.10;91.90;;;;;;5017424;28;20140;-72
2022/02/03 15:22:53;;;;;;;3.10;1.77;;;11.10;92.10;;;;;;5024846;28;20049;-71
2022/02/03 15:25:20;;;;;;;3.15;1.70;;;11.10;93.30;;;;;;5033879;28;20512;-69
2022/02/03 15:27:47;;;;;;;2.78;1.85;;;11.10;92.60;;;;;;5024026;28;20052;-67
2022/02/03 15:30:15;;;;;;;5.10;1.63;;;11.10;92.80;;;;;;4994127;28;20405;-68
2022/02/03 15:32:43;;;;;;;3.33;1.70;;;11.10;93.00;;;;;;5016994;28;20050;-71
2022/02/03 15:35:16;;;;;;;3.67;1.95;;;11.10;93.10;;;;;;5001102;28;20053;-65
2022/02/03 15:37:46;;;;;;;4.20;1.60;;;11.10;93.00;;;;;;4985996;28;20062;-64
2022/02/03 15:40:18;;;;;;;3.63;1.77;;;11.10;93.10;;;;;;5031575;28;20056;-64
2022/02/03 15:42:54;;;;;;;3.63;1.85;;;11.10;92.90;;;;;;5025532;28;20087;-64
2022/02/03 15:45:21;;;;;;;4.32;1.73;;;11.10;92.60;;;;;;5011422;28;20049;-66
2022/02/03 15:47:54;;;;;;;3.97;1.60;;;11.10;92.90;;;;;;5029110;28;20558;-68
2022/02/03 16:17:31;;;;;;;2.35;1.75;;;10.80;95.20;;;;;;5021100;28;20046;-70
2022/02/03 16:20:05;;;;;;;4.65;1.55;;;10.80;95.20;;;;;;5004115;28;20056;-70
2022/02/03 16:25:12;;;;;;;4.68;2.10;;;10.70;95.30;;;;;;5026459;28;20037;-65
2022/02/03 16:55:09;;;;;;;3.42;2.20;;;10.60;95.50;;;;;;5025164;28;20084;-67
2022/02/03 16:57:36;;;;;;;4.28;1.90;;;10.60;95.10;;;;;;4998594;28;20049;-65
2022/02/03 17:00:08;;;;;;;6.15;2.80;;;10.60;95.90;;;;;;5030986;28;20053;-67
2022/02/03 17:02:55;;;;;;;3.80;2.75;;;10.60;95.70;;;;;;4985116;28;20558;-64
2022/02/03 17:05:22;;;;;;;4.40;2.35;;;10.50;95.80;;;;;;4998936;28;20075;-63
2022/02/03 17:07:49;;;;;;;5.55;2.63;;;10.50;95.50;;;;;;5011778;28;20045;-69
2022/02/03 17:10:17;;;;;;;3.00;2.30;;;10.40;95.10;;;;;;5011740;28;20508;-66
2022/02/03 17:12:44;;;;;;;4.22;2.63;;;10.40;95.60;;;;;;5006148;28;20061;-63
2022/02/03 17:15:11;;;;;;;4.93;2.33;;;10.40;96.00;;;;;;5010600;28;20081;-63
2022/02/03 17:17:38;;;;;;;5.47;2.55;;;10.40;95.70;;;;;;5011082;28;20052;-66
2022/02/03 17:20:06;;;;;;;5.18;2.20;;;10.30;96.00;;;;;;4992847;28;20124;-68
2022/02/03 17:22:38;;;;;;;4.10;3.20;;;10.30;96.00;;;;;;5011752;28;20528;-66
2022/02/03 17:25:33;;;;;;;4.43;2.50;;;10.30;96.60;;;;;;5003147;28;20052;-67
2022/02/03 17:31:01;;;;;;;;;;;10.30;95.90;;;;;;4967821;28;20485;-66
2022/02/03 18:52:33;;;;;;;9.98;4.00;;;10.20;98.90;;;;;;5025709;28;20416;-67
2022/02/03 18:55:18;;;;;;;7.93;5.57;;;10.20;99.40;;;;;;5043600;28;20052;-68
2022/02/03 18:57:57;;;;;;;6.65;4.18;;;10.20;99.90;;;;;;5019054;28;20340;-68
2022/02/03 19:00:59;;;;;;;;;;;10.20;99.90;;;;;;5036378;28;20046;-68
2022/02/03 19:26:03;;;;;;;9.80;3.63;;;9.90;99.90;;;;;;5020694;28;20041;-68
2022/02/03 20:08:40;;;;;;;429.20;376.33;;;9.50;99.90;;;;;;5012104;28;20405;-68
2022/02/03 20:11:09;;;;;;;119.78;96.85;;;9.50;99.90;;;;;;4996901;28;20075;-68
2022/02/03 20:13:36;;;;;;;41.10;30.63;;;9.50;99.90;;;;;;5006730;28;20047;-67
2022/02/03 20:16:05;;;;;;;27.45;19.20;;;9.60;99.90;;;;;;4988428;28;20045;-68
2022/02/03 20:18:32;;;;;;;11.98;8.75;;;9.60;99.90;;;;;;5013491;28;20486;-67
2022/02/03 20:20:59;;;;;;;10.38;6.72;;;9.50;99.90;;;;;;4997609;28;20046;-68
2022/02/03 20:23:26;;;;;;;8.80;5.32;;;9.60;99.90;;;;;;4999263;28;20050;-68
2022/02/03 20:25:57;;;;;;;6.32;4.75;;;9.60;99.90;;;;;;5009430;28;20485;-68
2022/02/03 20:28:25;;;;;;;9.13;4.65;;;9.50;99.90;;;;;;4987438;28;20050;-69
2022/02/03 20:30:52;;;;;;;6.97;4.40;;;9.50;99.90;;;;;;5013017;28;20045;-67
2022/02/03 20:33:19;;;;;;;6.95;4.95;;;9.50;99.90;;;;;;5005253;28;20038;-67
2022/02/03 20:35:46;;;;;;;7.03;4.47;;;9.50;99.90;;;;;;5012364;28;20112;-67
2022/02/03 20:38:15;;;;;;;6.13;4.47;;;9.60;99.90;;;;;;5004798;28;20089;-66
2022/02/03 20:40:42;;;;;;;6.80;4.55;;;9.60;99.90;;;;;;5013049;28;20050;-67
2022/02/03 20:43:10;;;;;;;10.40;5.28;;;9.60;99.90;;;;;;5011293;28;20064;-67
2022/02/03 20:45:38;;;;;;;9.18;4.90;;;9.60;99.90;;;;;;5021689;28;20054;-70
2022/02/03 20:48:05;;;;;;;9.05;6.80;;;9.50;99.90;;;;;;4983740;28;20046;-67
2022/02/03 20:50:35;;;;;;;11.35;9.32;;;9.50;99.90;;;;;;5014425;28;21629;-67
2022/02/03 20:53:03;;;;;;;8.55;7.30;;;9.40;99.90;;;;;;4999980;28;20062;-67
2022/02/03 20:55:30;;;;;;;9.15;4.25;;;9.30;99.90;;;;;;5000022;28;20152;-67
2022/02/03 20:57:58;;;;;;;10.48;5.40;;;9.30;99.90;;;;;;5015214;28;20550;-66
2022/02/03 21:00:30;;;;;;;12.15;4.65;;;9.30;99.90;;;;;;5016197;28;20041;-67
2022/02/03 21:05:24;;;;;;;7.15;4.75;;;9.30;99.90;;;;;;5031332;28;20103;-70
2022/02/03 21:07:51;;;;;;;7.75;6.35;;;9.30;99.90;;;;;;5018296;28;20076;-67
2022/02/03 21:10:22;;;;;;;8.20;6.20;;;9.20;99.90;;;;;;5031628;28;20435;-68
2022/02/03 21:12:49;;;;;;;7.03;5.45;;;9.20;99.90;;;;;;4999326;28;20060;-68
2022/02/03 21:15:23;;;;;;;11.25;7.20;;;9.10;99.90;;;;;;5015662;28;20057;-71
2022/02/03 21:17:51;;;;;;;9.40;6.30;;;9.10;99.90;;;;;;4999969;28;20452;-68
2022/02/03 21:20:20;;;;;;;10.60;5.95;;;9.00;99.90;;;;;;5018267;28;20057;-67
2022/02/03 21:22:47;;;;;;;9.35;5.63;;;9.00;99.90;;;;;;5015811;28;20038;-67
2022/02/03 21:25:35;;;;;;;7.55;5.40;;;8.90;99.90;;;;;;5021221;28;20053;-66
2022/02/03 21:28:09;;;;;;;112.72;74.95;;;8.90;99.90;;;;;;5006485;28;20045;-66
2022/02/03 21:30:36;;;;;;;258.35;152.20;;;8.90;99.90;;;;;;5028276;28;20049;-69
2022/02/03 21:33:03;;;;;;;22.75;16.20;;;8.90;99.90;;;;;;5031465;28;20057;-69
2022/02/03 21:35:30;;;;;;;14.10;10.35;;;8.90;99.90;;;;;;5012473;28;20045;-68
2022/02/03 21:37:57;;;;;;;11.10;7.18;;;8.90;99.90;;;;;;5031074;28;20053;-69
2022/02/03 21:40:24;;;;;;;17.55;5.65;;;8.90;99.90;;;;;;5014711;28;20432;-69
2022/02/03 21:42:51;;;;;;;7.45;5.53;;;8.90;99.90;;;;;;5018713;28;20481;-69
2022/02/03 21:45:18;;;;;;;7.38;5.22;;;9.00;99.90;;;;;;5014816;28;20137;-69
2022/02/03 21:47:45;;;;;;;9.02;5.68;;;9.00;99.90;;;;;;5018693;28;20049;-70
2022/02/03 21:50:12;;;;;;;11.13;5.55;;;9.10;99.90;;;;;;4993242;28;20052;-69
2022/02/03 21:52:46;;;;;;;9.40;5.30;;;9.10;99.90;;;;;;5029318;28;20442;-69
2022/02/03 21:55:13;;;;;;;10.75;5.28;;;9.10;99.90;;;;;;5003515;28;20429;-68
2022/02/03 21:57:44;;;;;;;7.45;4.15;;;9.10;99.90;;;;;;4988403;28;20044;-69
2022/02/03 22:00:12;;;;;;;8.75;5.47;;;9.10;99.90;;;;;;4979256;28;20054;-68
2022/02/03 22:02:39;;;;;;;8.98;5.10;;;9.10;99.90;;;;;;4981111;28;20050;-68
2022/02/03 22:05:11;;;;;;;9.02;5.03;;;9.10;99.90;;;;;;4993388;28;20045;-69
2022/02/03 22:07:42;;;;;;;8.95;6.40;;;9.10;99.90;;;;;;4974925;28;20448;-70
2022/02/03 22:10:11;;;;;;;7.30;5.22;;;9.10;99.90;;;;;;4984398;28;20076;-68
2022/02/03 22:12:38;;;;;;;10.43;5.13;;;9.20;99.90;;;;;;4976914;28;20394;-69
2022/02/03 22:15:05;;;;;;;8.27;5.63;;;9.20;99.90;;;;;;4986088;28;20302;-68
2022/02/03 22:17:32;;;;;;;9.52;5.72;;;9.20;99.90;;;;;;4991811;28;20509;-68
2022/02/03 22:20:03;;;;;;;7.28;5.57;;;9.20;99.90;;;;;;4974404;28;20379;-69
2022/02/03 22:28:10;;;;;;;6.10;5.50;;;9.20;99.90;;;;;;4982569;28;20057;-69
2022/02/03 22:38:43;;;;;;;12.15;6.70;;;9.10;99.90;;;;;;5003314;28;20042;-65
2022/02/03 22:49:09;;;;;;;10.65;6.13;;;8.80;99.90;;;;;;4985408;28;20134;-66
2022/02/03 22:51:37;;;;;;;6.30;4.68;;;8.80;99.90;;;;;;4974363;28;20061;-66
2022/02/03 22:54:07;;;;;;;7.38;4.22;;;8.80;99.90;;;;;;4983134;28;20049;-66
2022/02/03 22:56:37;;;;;;;5.32;3.88;;;8.90;99.90;;;;;;4983895;28;20053;-66
2022/02/03 23:01:37;;;;;;;7.15;3.78;;;8.90;99.90;;;;;;5018254;28;20053;-66
2022/02/03 23:04:04;;;;;;;8.75;4.30;;;9.00;99.90;;;;;;5005345;28;20041;-66
2022/02/03 23:06:31;;;;;;;7.70;4.35;;;9.00;99.90;;;;;;5003599;28;20045;-66
2022/02/03 23:09:15;;;;;;;9.00;3.65;;;9.00;99.90;;;;;;5009815;28;20045;-66
2022/02/03 23:17:54;;;;;;;10.40;3.38;;;9.20;99.90;;;;;;5029866;28;20077;-66
2022/02/03 23:20:19;;;;;;;6.63;2.75;;;9.20;99.90;;;;;;5010815;28;20053;-66
2022/02/03 23:22:46;;;;;;;5.05;3.00;;;9.30;99.90;;;;;;5014571;28;20442;-66
2022/02/03 23:25:15;;;;;;;6.03;2.97;;;9.30;99.90;;;;;;5034996;28;20100;-66
2022/02/03 23:30:20;;;;;;;5.03;2.95;;;9.30;99.90;;;;;;5037315;28;20075;-66
2022/02/03 23:32:48;;;;;;;5.82;2.90;;;9.30;99.90;;;;;;5018955;28;20053;-65
2022/02/03 23:35:22;;;;;;;5.93;3.08;;;9.30;99.90;;;;;;5017887;28;20060;-69
2022/02/03 23:37:58;;;;;;;7.35;3.03;;;9.30;99.90;;;;;;5017357;28;20057;-66
2022/02/03 23:41:11;;;;;;;9.55;4.15;;;9.30;99.90;;;;;;5011940;28;20080;-66
